Time;durP1;ratioP1;P1;durP2;ratioP2;P2;SDS_P1;SDS_P2;PMS_P1;PMS_P2;Temp;Humidity;BMP_temperature;BMP_pressure;BME280_temperature;BME280_humidity;BME280_pressure;Samples;Min_cycle;Max_cycle;Signal;HPM_P1;HPM_P2
2022/09/29 00:00:25;;;;;;;6.93;3.20;;;6.60;99.90;;;;;;6274691;22;20080;-86
2022/09/29 00:02:51;;;;;;;6.68;3.47;;;6.60;99.90;;;;;;6273873;22;20038;-86
2022/09/29 00:05:17;;;;;;;6.35;4.60;;;6.50;99.90;;;;;;6273089;22;20441;-86
2022/09/29 00:07:42;;;;;;;8.02;4.50;;;6.50;99.90;;;;;;6274405;22;20440;-87
2022/09/29 00:10:08;;;;;;;8.13;3.67;;;6.50;99.90;;;;;;6272444;22;20050;-86
2022/09/29 00:12:34;;;;;;;7.20;4.07;;;7.00;99.90;;;;;;6273334;22;20363;-86
2022/09/29 00:14:59;;;;;;;7.88;4.53;;;6.50;99.90;;;;;;6273072;22;20012;-86
2022/09/29 00:17:25;;;;;;;7.45;4.90;;;6.50;99.90;;;;;;6272835;22;20023;-86
2022/09/29 00:19:51;;;;;;;8.27;4.70;;;6.50;99.90;;;;;;6272678;22;20019;-86
2022/09/29 00:22:16;;;;;;;7.22;4.90;;;6.50;99.90;;;;;;6274500;22;20361;-87
2022/09/29 00:24:42;;;;;;;6.55;4.60;;;6.50;99.90;;;;;;6272659;22;20077;-86
2022/09/29 00:27:07;;;;;;;6.10;4.68;;;6.50;99.90;;;;;;6274443;22;20077;-86
2022/09/29 00:29:33;;;;;;;8.02;4.88;;;6.40;99.90;;;;;;6274110;22;20019;-86
2022/09/29 00:31:59;;;;;;;10.30;5.18;;;6.50;99.90;;;;;;6272247;22;20433;-86
2022/09/29 00:34:24;;;;;;;8.13;5.50;;;6.40;99.90;;;;;;6273539;22;20027;-86
2022/09/29 00:36:50;;;;;;;8.35;5.57;;;6.40;99.90;;;;;;6273242;22;20444;-86
2022/09/29 00:39:16;;;;;;;8.60;5.25;;;6.40;99.90;;;;;;6273108;22;20041;-86
2022/09/29 00:41:41;;;;;;;7.70;5.30;;;6.40;99.90;;;;;;6275542;22;20090;-86
2022/09/29 00:44:13;;;;;;;7.32;5.30;;;6.40;99.90;;;;;;6273006;22;20031;-86
2022/09/29 00:46:46;;;;;;;7.80;5.90;;;6.50;99.90;;;;;;6274534;22;20023;-86
2022/09/29 00:49:35;;;;;;;7.70;5.83;;;6.40;99.90;;;;;;6247723;22;20348;-86
2022/09/29 00:52:11;;;;;;;7.25;5.13;;;6.40;99.90;;;;;;6275321;22;20012;-86
2022/09/29 00:54:40;;;;;;;11.45;5.93;;;6.40;99.90;;;;;;6274926;22;20046;-86
2022/09/29 00:57:08;;;;;;;10.32;6.18;;;6.40;99.90;;;;;;6273905;22;20086;-86
2022/09/29 00:59:46;;;;;;;8.60;6.40;;;6.40;99.90;;;;;;6274491;22;20030;-86
2022/09/29 01:02:14;;;;;;;8.80;5.72;;;6.30;99.90;;;;;;6274456;22;20012;-86
2022/09/29 01:04:40;;;;;;;9.20;6.00;;;6.40;99.90;;;;;;6273076;22;20057;-87
2022/09/29 01:07:08;;;;;;;8.82;6.30;;;6.40;99.90;;;;;;6272192;22;20008;-86
2022/09/29 01:09:37;;;;;;;8.27;6.28;;;6.40;99.90;;;;;;6273187;22;20004;-86
2022/09/29 01:12:04;;;;;;;7.75;5.85;;;6.30;99.90;;;;;;6273052;22;20472;-86
2022/09/29 01:14:31;;;;;;;8.20;6.00;;;6.40;99.90;;;;;;6271933;22;20029;-86
2022/09/29 01:16:58;;;;;;;8.75;6.72;;;6.40;99.90;;;;;;6247423;22;20094;-87
2022/09/29 01:19:42;;;;;;;8.93;6.07;;;6.40;99.90;;;;;;6272935;22;20091;-85
2022/09/29 01:22:42;;;;;;;8.60;6.13;;;6.40;99.90;;;;;;6272568;22;20047;-87
2022/09/29 01:25:47;;;;;;;7.40;6.03;;;6.30;99.90;;;;;;6231605;22;20012;-87
2022/09/29 01:28:58;;;;;;;7.65;5.47;;;6.30;99.90;;;;;;6246528;22;20489;-86
2022/09/29 01:31:42;;;;;;;8.20;5.53;;;6.30;99.90;;;;;;6272318;22;20064;-86
2022/09/29 01:34:20;;;;;;;8.98;5.80;;;6.30;99.90;;;;;;6274016;22;20019;-86
2022/09/29 01:37:00;;;;;;;9.30;5.65;;;6.30;99.90;;;;;;6272171;22;20030;-86
2022/09/29 01:39:39;;;;;;;7.18;5.10;;;6.20;99.90;;;;;;6272054;22;20027;-87
2022/09/29 01:42:14;;;;;;;6.85;5.25;;;6.20;99.90;;;;;;6272823;22;20035;-86
2022/09/29 01:44:52;;;;;;;7.88;6.07;;;6.20;99.90;;;;;;6272503;22;20012;-86
2022/09/29 01:47:38;;;;;;;8.85;6.15;;;6.10;99.90;;;;;;6273123;22;20014;-86
2022/09/29 01:50:11;;;;;;;9.27;7.05;;;6.10;99.90;;;;;;6273503;22;20015;-86
2022/09/29 01:52:43;;;;;;;9.02;6.15;;;6.10;99.90;;;;;;6273477;22;20061;-87
2022/09/29 01:55:12;;;;;;;9.02;6.18;;;6.10;99.90;;;;;;6247663;22;20028;-86
2022/09/29 01:57:48;;;;;;;11.07;6.88;;;6.20;99.90;;;;;;6272765;22;20082;-87
2022/09/29 02:00:16;;;;;;;9.68;6.30;;;6.10;99.90;;;;;;6274851;22;20361;-87
2022/09/29 02:02:53;;;;;;;9.13;6.07;;;6.10;99.90;;;;;;6273585;22;20016;-87
2022/09/29 02:05:37;;;;;;;8.70;6.00;;;6.10;99.90;;;;;;6275430;22;20087;-86
2022/09/29 02:08:41;;;;;;;7.38;5.43;;;6.10;99.90;;;;;;6274521;22;20011;-87
2022/09/29 02:11:11;;;;;;;8.77;5.97;;;6.00;99.90;;;;;;6275049;22;20034;-87
2022/09/29 02:13:42;;;;;;;10.35;6.93;;;6.00;99.90;;;;;;6276280;22;20004;-87
2022/09/29 02:16:13;;;;;;;11.05;6.78;;;6.00;99.90;;;;;;6276244;22;20039;-87
2022/09/29 02:18:53;;;;;;;9.05;6.43;;;6.00;99.90;;;;;;6275147;22;20011;-87
2022/09/29 02:21:18;;;;;;;9.48;6.60;;;6.00;99.90;;;;;;6275051;22;20015;-87
2022/09/29 02:23:44;;;;;;;9.75;7.28;;;6.00;99.90;;;;;;6276898;22;20019;-87
2022/09/29 02:26:11;;;;;;;8.30;6.07;;;6.00;99.90;;;;;;6248598;22;20016;-87
2022/09/29 02:28:37;;;;;;;9.15;6.47;;;5.90;99.90;;;;;;6277031;22;20066;-86
2022/09/29 02:31:04;;;;;;;9.18;6.65;;;5.90;99.90;;;;;;6275193;22;20082;-87
2022/09/29 02:33:29;;;;;;;10.65;7.07;;;5.90;99.90;;;;;;6274949;22;20026;-87
2022/09/29 02:36:16;;;;;;;8.38;6.45;;;5.90;99.90;;;;;;6276990;22;20340;-86
2022/09/29 02:38:53;;;;;;;8.63;6.40;;;5.90;99.90;;;;;;6275076;22;20022;-86
2022/09/29 02:41:41;;;;;;;9.98;6.55;;;5.90;99.90;;;;;;6274738;22;20012;-87
2022/09/29 02:44:21;;;;;;;9.90;7.38;;;5.80;99.90;;;;;;6274992;22;20022;-86
2022/09/29 02:47:18;;;;;;;9.48;6.70;;;5.90;99.90;;;;;;6277411;22;20014;-87
2022/09/29 02:50:37;;;;;;;8.80;6.55;;;5.90;99.90;;;;;;6275220;22;20100;-87
2022/09/29 02:53:25;;;;;;;9.05;6.60;;;5.80;99.90;;;;;;6157517;23;20385;-87
2022/09/29 02:56:01;;;;;;;10.70;7.03;;;5.80;99.90;;;;;;6157083;23;20024;-87
2022/09/29 02:58:45;;;;;;;9.00;6.68;;;5.80;99.90;;;;;;6157913;23;20013;-87
2022/09/29 03:01:13;;;;;;;9.52;6.20;;;5.80;99.90;;;;;;6157767;23;20501;-86
2022/09/29 03:03:39;;;;;;;8.55;6.15;;;5.50;99.90;;;;;;6158077;23;20012;-87
2022/09/29 03:06:05;;;;;;;8.07;6.30;;;5.70;99.90;;;;;;6157936;23;20530;-87
2022/09/29 03:08:32;;;;;;;7.82;5.63;;;5.70;99.90;;;;;;6158176;23;20021;-87
2022/09/29 03:10:58;;;;;;;11.18;7.20;;;5.70;99.90;;;;;;6157322;23;20509;-87
2022/09/29 03:13:24;;;;;;;11.43;6.53;;;5.70;99.90;;;;;;6182796;23;20017;-87
2022/09/29 03:15:49;;;;;;;8.80;6.65;;;5.60;99.90;;;;;;6182657;23;20044;-87
2022/09/29 03:18:15;;;;;;;8.68;6.55;;;5.60;99.90;;;;;;6182140;23;20033;-87
2022/09/29 03:20:41;;;;;;;8.10;6.00;;;5.60;99.90;;;;;;6157463;23;20020;-87
2022/09/29 03:23:07;;;;;;;8.90;6.00;;;5.60;99.90;;;;;;6157151;23;20549;-87
2022/09/29 03:25:32;;;;;;;10.15;6.35;;;5.60;99.90;;;;;;6157210;23;20358;-87
2022/09/29 03:27:58;;;;;;;9.88;6.22;;;5.60;99.90;;;;;;6266638;22;20051;-87
2022/09/29 03:30:24;;;;;;;7.90;6.18;;;5.60;99.90;;;;;;6276523;22;20011;-86
2022/09/29 03:32:49;;;;;;;11.13;7.38;;;5.60;99.90;;;;;;6276864;22;20016;-86
2022/09/29 03:35:15;;;;;;;9.45;7.35;;;5.60;99.90;;;;;;6248562;22;20020;-87
2022/09/29 03:37:41;;;;;;;10.82;7.18;;;5.50;99.90;;;;;;6275136;22;20023;-87
2022/09/29 03:40:07;;;;;;;11.73;7.68;;;5.60;99.90;;;;;;6274792;22;20087;-87
2022/09/29 03:42:33;;;;;;;9.60;6.72;;;5.60;99.90;;;;;;6249686;22;20011;-87
2022/09/29 03:44:58;;;;;;;8.30;6.80;;;5.60;99.90;;;;;;6275110;22;20472;-86
2022/09/29 03:47:24;;;;;;;8.80;7.00;;;5.60;99.90;;;;;;6274991;22;20015;-86
2022/09/29 03:49:49;;;;;;;9.00;6.50;;;5.50;99.90;;;;;;6275313;22;20015;-87
2022/09/29 03:52:15;;;;;;;10.70;7.07;;;5.50;99.90;;;;;;6249013;22;20038;-86
2022/09/29 03:54:41;;;;;;;9.50;6.53;;;5.50;99.90;;;;;;6275985;22;20087;-87
2022/09/29 03:57:06;;;;;;;8.02;6.05;;;5.50;99.90;;;;;;6275070;22;20012;-87
2022/09/29 03:59:32;;;;;;;9.52;6.47;;;5.50;99.90;;;;;;6275475;22;20004;-87
2022/09/29 04:01:58;;;;;;;19.35;8.20;;;5.50;99.90;;;;;;6274957;22;20019;-87
2022/09/29 04:04:23;;;;;;;12.95;8.15;;;5.50;99.90;;;;;;6275363;22;20012;-87
2022/09/29 04:06:49;;;;;;;12.43;7.47;;;5.50;99.90;;;;;;6249131;22;20058;-87
2022/09/29 04:09:15;;;;;;;39.88;9.52;;;5.50;99.90;;;;;;6274391;22;20046;-87
2022/09/29 04:11:40;;;;;;;9.55;7.05;;;5.50;99.90;;;;;;6275212;22;20110;-86
2022/09/29 04:14:06;;;;;;;11.68;7.10;;;5.50;99.90;;;;;;6274475;22;20026;-87
2022/09/29 04:16:32;;;;;;;11.73;8.00;;;5.60;99.90;;;;;;6274698;22;20046;-87
2022/09/29 04:18:57;;;;;;;11.55;8.20;;;5.50;99.90;;;;;;6274197;22;20026;-86
2022/09/29 04:21:23;;;;;;;9.70;7.03;;;5.50;99.90;;;;;;6276471;22;20020;-87
2022/09/29 04:23:49;;;;;;;9.38;7.47;;;5.50;99.90;;;;;;6275886;22;20042;-87
2022/09/29 04:26:15;;;;;;;9.18;7.20;;;5.50;99.90;;;;;;6249269;22;20019;-87
2022/09/29 04:28:41;;;;;;;9.68;7.50;;;5.40;99.90;;;;;;6276439;22;20046;-86
2022/09/29 04:31:06;;;;;;;16.75;7.53;;;5.40;99.90;;;;;;6274501;22;20007;-87
2022/09/29 04:33:33;;;;;;;9.95;7.75;;;5.40;99.90;;;;;;6273718;22;20038;-87
2022/09/29 04:35:59;;;;;;;12.05;7.38;;;5.40;99.90;;;;;;6273612;22;20047;-86
2022/09/29 04:38:25;;;;;;;16.05;9.45;;;5.40;99.90;;;;;;6272247;22;20095;-87
2022/09/29 04:40:51;;;;;;;11.25;7.75;;;5.30;99.90;;;;;;6274464;22;20012;-87
2022/09/29 04:43:16;;;;;;;10.75;8.18;;;5.30;99.90;;;;;;6274268;22;20004;-87
2022/09/29 04:45:42;;;;;;;31.00;8.23;;;5.30;99.90;;;;;;6272702;22;20448;-87
2022/09/29 04:48:08;;;;;;;86.53;10.43;;;5.30;99.90;;;;;;6272324;22;20012;-86
2022/09/29 04:50:34;;;;;;;36.63;7.13;;;5.30;99.90;;;;;;6246778;22;20078;-87
2022/09/29 04:52:59;;;;;;;60.10;8.73;;;5.30;99.90;;;;;;6271441;22;20082;-87
2022/09/29 04:55:25;;;;;;;57.63;8.63;;;5.30;99.90;;;;;;6246211;22;20770;-86
2022/09/29 04:57:51;;;;;;;42.35;7.68;;;5.50;99.90;;;;;;6272803;22;20016;-86
2022/09/29 05:00:17;;;;;;;21.17;6.72;;;5.20;99.90;;;;;;6246642;22;20012;-86
2022/09/29 05:02:43;;;;;;;34.78;7.03;;;5.20;99.90;;;;;;6271999;22;20340;-86
2022/09/29 05:05:11;;;;;;;44.42;7.50;;;5.40;99.90;;;;;;6274480;22;20012;-87
2022/09/29 05:07:38;;;;;;;31.13;7.95;;;5.10;99.90;;;;;;6272363;22;20016;-86
2022/09/29 05:10:05;;;;;;;21.38;7.30;;;5.10;99.90;;;;;;6273840;22;20437;-87
2022/09/29 05:12:31;;;;;;;9.40;6.50;;;5.10;99.90;;;;;;6273645;22;20062;-85
2022/09/29 05:14:56;;;;;;;13.98;7.75;;;5.00;99.90;;;;;;6270045;22;20012;-86
2022/09/29 05:17:22;;;;;;;9.40;6.95;;;5.00;99.90;;;;;;6271854;22;20441;-87
2022/09/29 05:19:48;;;;;;;14.63;7.22;;;5.00;99.90;;;;;;6273369;22;20008;-86
2022/09/29 05:22:14;;;;;;;8.82;6.72;;;5.00;99.90;;;;;;6273374;22;20073;-86
2022/09/29 05:24:40;;;;;;;13.52;6.88;;;5.00;99.90;;;;;;6271263;22;20024;-84
2022/09/29 05:27:06;;;;;;;8.68;6.55;;;5.00;99.90;;;;;;6271711;22;20038;-85
2022/09/29 05:29:31;;;;;;;9.02;7.20;;;5.00;99.90;;;;;;6243391;22;20051;-85
2022/09/29 05:31:57;;;;;;;9.93;6.70;;;5.00;99.90;;;;;;6270771;22;20026;-87
2022/09/29 05:34:23;;;;;;;9.98;6.82;;;5.00;99.90;;;;;;6272068;22;20102;-87
2022/09/29 05:36:49;;;;;;;9.25;6.90;;;4.90;99.90;;;;;;6271892;22;20019;-86
2022/09/29 05:39:16;;;;;;;8.55;6.55;;;4.90;99.90;;;;;;6273531;22;20016;-87
2022/09/29 05:41:44;;;;;;;8.43;6.75;;;4.90;99.90;;;;;;6273424;22;20086;-87
2022/09/29 05:44:10;;;;;;;10.57;7.60;;;4.90;99.90;;;;;;6275373;22;20007;-87
2022/09/29 05:46:36;;;;;;;10.63;7.95;;;4.90;99.90;;;;;;6273260;22;20024;-85
2022/09/29 05:49:02;;;;;;;11.13;8.35;;;4.90;99.90;;;;;;6274884;22;20073;-84
2022/09/29 05:51:28;;;;;;;10.38;7.88;;;4.90;99.90;;;;;;6247937;22;20336;-86
2022/09/29 05:53:54;;;;;;;11.32;8.13;;;5.10;99.90;;;;;;6273950;22;20065;-87
2022/09/29 05:56:22;;;;;;;10.43;8.25;;;4.90;99.90;;;;;;6274721;22;20016;-89
2022/09/29 05:58:48;;;;;;;10.57;8.48;;;4.90;99.90;;;;;;6274189;22;20517;-87
2022/09/29 06:01:23;;;;;;;11.23;8.52;;;4.90;99.90;;;;;;6275861;22;20047;-85
2022/09/29 06:03:50;;;;;;;;;;;4.90;99.90;;;;;;6276505;22;20018;-86
2022/09/29 06:06:19;;;;;;;12.25;9.23;;;5.00;99.90;;;;;;6273832;22;19919;-87
2022/09/29 06:08:45;;;;;;;13.00;8.93;;;5.00;99.90;;;;;;6275407;22;20077;-89
2022/09/29 06:11:14;;;;;;;11.65;8.75;;;5.00;99.90;;;;;;6276369;22;20069;-87
2022/09/29 06:13:41;;;;;;;10.57;8.52;;;5.00;99.90;;;;;;6276140;22;20015;-86
2022/09/29 06:16:08;;;;;;;12.35;9.25;;;5.00;99.90;;;;;;6272995;22;20016;-87
2022/09/29 06:18:34;;;;;;;12.15;9.27;;;5.00;99.90;;;;;;6248104;22;20012;-87
2022/09/29 06:21:05;;;;;;;12.00;9.23;;;5.00;99.90;;;;;;6275829;22;20061;-86
2022/09/29 06:23:32;;;;;;;42.25;11.45;;;5.10;99.90;;;;;;6274427;22;20043;-88
2022/09/29 06:26:00;;;;;;;12.18;9.55;;;5.10;99.90;;;;;;6273324;22;20020;-86
2022/09/29 06:28:27;;;;;;;13.43;10.27;;;5.10;99.90;;;;;;6274381;22;20433;-86
2022/09/29 06:31:02;;;;;;;14.35;10.52;;;5.20;99.90;;;;;;6273609;22;20503;-85
2022/09/29 06:33:29;;;;;;;14.77;10.90;;;5.20;99.90;;;;;;6273219;22;20110;-86
2022/09/29 06:38:40;;;;;;;14.35;10.38;;;5.30;99.90;;;;;;6275159;22;20505;-89
2022/09/29 06:41:07;;;;;;;13.88;10.27;;;5.80;99.90;;;;;;6275255;22;20008;-87
2022/09/29 06:43:34;;;;;;;14.85;10.20;;;5.40;99.90;;;;;;6276506;22;20011;-87
2022/09/29 06:45:59;;;;;;;12.68;9.75;;;5.40;99.90;;;;;;6273641;22;20069;-90
2022/09/29 06:48:25;;;;;;;16.65;10.40;;;5.40;99.90;;;;;;6271586;22;20008;-92
2022/09/29 06:50:51;;;;;;;11.40;9.32;;;5.50;99.90;;;;;;6274684;22;20403;-89
2022/09/29 06:53:16;;;;;;;11.02;8.70;;;5.40;99.90;;;;;;6272413;22;20019;-84
2022/09/29 06:55:42;;;;;;;13.40;10.05;;;5.50;99.90;;;;;;6273801;22;20051;-87
2022/09/29 06:58:08;;;;;;;11.38;9.25;;;5.50;99.90;;;;;;6274490;22;20015;-87
2022/09/29 07:00:33;;;;;;;11.68;9.00;;;5.50;99.90;;;;;;6275741;22;20012;-87
2022/09/29 07:02:59;;;;;;;11.93;8.73;;;5.50;99.90;;;;;;6272747;22;20085;-87
2022/09/29 07:05:25;;;;;;;12.07;9.45;;;5.50;99.90;;;;;;6272910;22;20050;-86
2022/09/29 07:07:51;;;;;;;13.77;9.75;;;5.50;99.90;;;;;;6274329;22;20011;-85
2022/09/29 07:10:17;;;;;;;12.57;9.10;;;5.60;99.90;;;;;;6245958;22;20023;-85
2022/09/29 07:12:46;;;;;;;16.17;12.20;;;5.60;99.90;;;;;;6271660;22;20012;-84
2022/09/29 07:15:12;;;;;;;12.80;10.30;;;5.60;99.90;;;;;;6272334;22;20016;-84
2022/09/29 07:17:38;;;;;;;14.60;10.75;;;5.70;99.90;;;;;;6272524;22;20755;-84
2022/09/29 07:20:04;;;;;;;15.57;11.57;;;5.70;99.90;;;;;;6272752;22;20043;-84
2022/09/29 07:22:29;;;;;;;17.20;11.73;;;5.70;99.90;;;;;;6247626;22;20061;-84
2022/09/29 07:24:55;;;;;;;15.45;12.25;;;5.80;99.90;;;;;;6271989;22;20019;-84
2022/09/29 07:27:23;;;;;;;17.38;12.18;;;5.80;99.90;;;;;;6272865;22;20341;-84
2022/09/29 07:29:52;;;;;;;16.85;12.48;;;5.80;99.90;;;;;;6274569;22;20015;-84
2022/09/29 07:32:18;;;;;;;17.13;13.20;;;5.90;99.90;;;;;;6245910;22;20020;-84
2022/09/29 07:34:44;;;;;;;16.40;13.20;;;5.90;99.90;;;;;;6273397;22;20114;-84
2022/09/29 07:37:11;;;;;;;16.65;13.02;;;5.90;99.90;;;;;;6274062;22;20034;-84
2022/09/29 07:39:36;;;;;;;15.13;11.80;;;6.00;99.90;;;;;;6272309;22;20087;-84
2022/09/29 07:42:02;;;;;;;18.52;12.88;;;6.00;99.90;;;;;;6247235;22;20047;-84
2022/09/29 07:44:30;;;;;;;17.40;13.52;;;6.00;99.90;;;;;;6272569;22;20012;-84
2022/09/29 07:46:56;;;;;;;17.55;12.35;;;6.10;99.90;;;;;;6273451;22;20016;-84
2022/09/29 07:49:22;;;;;;;20.05;13.18;;;6.10;99.90;;;;;;6272416;22;20015;-85
2022/09/29 07:51:48;;;;;;;19.40;13.55;;;6.20;99.90;;;;;;6272592;22;20037;-85
2022/09/29 07:54:13;;;;;;;22.40;15.75;;;6.20;99.90;;;;;;6272052;22;20448;-84
2022/09/29 07:56:39;;;;;;;20.00;15.38;;;6.30;99.90;;;;;;6272695;22;20030;-84
2022/09/29 07:59:05;;;;;;;18.83;14.75;;;6.40;99.90;;;;;;6274630;22;20042;-84
2022/09/29 08:01:31;;;;;;;20.23;15.70;;;6.50;99.90;;;;;;6271772;22;20028;-85
2022/09/29 08:03:56;;;;;;;24.27;17.13;;;6.50;99.90;;;;;;6272911;22;20061;-85
2022/09/29 08:06:24;;;;;;;23.25;17.17;;;6.60;99.90;;;;;;6272579;22;20015;-84
2022/09/29 08:08:50;;;;;;;27.05;17.05;;;6.70;99.90;;;;;;6246586;22;20444;-84
2022/09/29 08:11:22;;;;;;;25.48;18.20;;;6.80;99.90;;;;;;6272484;22;20453;-83
2022/09/29 08:13:50;;;;;;;25.65;17.65;;;6.90;99.90;;;;;;6271819;22;20370;-84
2022/09/29 08:16:16;;;;;;;23.02;17.05;;;7.00;99.90;;;;;;6271730;22;20015;-85
2022/09/29 08:18:42;;;;;;;27.45;18.88;;;7.00;99.90;;;;;;6272398;22;20061;-84
2022/09/29 08:21:09;;;;;;;25.42;18.65;;;7.10;99.90;;;;;;6272227;22;20289;-85
2022/09/29 08:23:37;;;;;;;25.52;18.10;;;7.30;99.90;;;;;;6274032;22;20008;-85
2022/09/29 08:26:08;;;;;;;28.90;19.65;;;7.30;99.90;;;;;;6271865;22;20030;-85
2022/09/29 08:28:36;;;;;;;30.25;19.60;;;7.40;99.90;;;;;;6274566;22;20008;-85
2022/09/29 08:31:07;;;;;;;28.00;18.20;;;7.40;99.90;;;;;;6274376;22;20087;-88
2022/09/29 08:33:33;;;;;;;28.48;19.08;;;7.50;99.90;;;;;;6275281;22;20011;-88
2022/09/29 08:36:00;;;;;;;29.92;19.73;;;7.60;99.90;;;;;;6273746;22;20218;-88
2022/09/29 08:38:26;;;;;;;29.90;19.48;;;7.70;99.90;;;;;;6275405;22;20352;-88
2022/09/29 08:41:01;;;;;;;31.98;20.55;;;7.70;99.90;;;;;;6273578;22;20042;-89
2022/09/29 08:43:32;;;;;;;29.23;19.80;;;8.40;99.90;;;;;;6247852;22;20090;-88
2022/09/29 08:46:06;;;;;;;30.70;20.67;;;8.50;99.90;;;;;;6273142;22;20016;-88
2022/09/29 08:48:36;;;;;;;31.95;21.23;;;8.00;99.90;;;;;;6275383;22;20018;-88
2022/09/29 08:51:06;;;;;;;32.50;20.88;;;8.10;99.90;;;;;;6274253;22;20012;-88
2022/09/29 08:53:37;;;;;;;31.75;20.30;;;8.10;99.90;;;;;;6272686;22;20038;-87
2022/09/29 08:56:12;;;;;;;26.83;19.40;;;8.20;99.90;;;;;;6272781;22;20015;-88
2022/09/29 08:58:38;;;;;;;32.88;20.58;;;8.30;99.90;;;;;;6270502;22;20248;-88
2022/09/29 09:01:23;;;;;;;27.00;18.23;;;8.60;99.90;;;;;;6272811;22;20015;-87
2022/09/29 09:03:58;;;;;;;30.77;19.02;;;8.50;99.90;;;;;;6274767;22;20023;-89
2022/09/29 09:07:17;;;;;;;28.35;19.58;;;8.70;99.90;;;;;;6274651;22;20318;-89
2022/09/29 09:09:54;;;;;;;29.45;18.48;;;8.80;99.90;;;;;;6223284;22;20066;-87
2022/09/29 09:12:32;;;;;;;24.92;17.77;;;9.00;99.90;;;;;;6274573;22;20011;-87
2022/09/29 09:15:34;;;;;;;24.13;15.70;;;9.20;99.90;;;;;;6272157;22;20022;-88
2022/09/29 09:18:23;;;;;;;18.27;14.00;;;9.40;99.90;;;;;;6274178;22;20059;-87
2022/09/29 09:20:52;;;;;;;23.38;15.95;;;9.60;99.90;;;;;;6277105;22;20011;-87
2022/09/29 09:23:28;;;;;;;20.27;12.98;;;9.80;99.90;;;;;;6275093;22;20019;-87
2022/09/29 09:25:58;;;;;;;20.08;12.38;;;9.90;99.90;;;;;;6273550;22;20012;-88
2022/09/29 09:28:42;;;;;;;16.63;10.82;;;10.10;99.90;;;;;;6274757;22;20019;-88
2022/09/29 09:31:14;;;;;;;12.23;8.82;;;10.30;99.90;;;;;;6273797;22;20041;-88
2022/09/29 09:33:59;;;;;;;11.25;7.45;;;10.50;99.90;;;;;;6276641;22;20015;-88
2022/09/29 09:36:35;;;;;;;9.88;6.95;;;10.60;99.90;;;;;;6276279;22;20059;-87
2022/09/29 09:39:09;;;;;;;13.20;6.75;;;10.80;99.90;;;;;;6249378;22;20043;-87
2022/09/29 09:41:36;;;;;;;8.90;5.30;;;11.10;99.90;;;;;;6273464;22;20073;-87
2022/09/29 09:44:39;;;;;;;8.95;5.43;;;11.20;99.90;;;;;;6274423;22;20011;-87
2022/09/29 09:47:26;;;;;;;7.57;4.10;;;11.50;99.90;;;;;;6181746;23;20115;-87
2022/09/29 09:50:15;;;;;;;6.57;3.15;;;11.70;99.90;;;;;;6156747;23;20437;-86
2022/09/29 09:52:44;;;;;;;7.72;2.90;;;11.80;99.90;;;;;;6182318;23;20041;-87
2022/09/29 09:55:16;;;;;;;5.65;2.90;;;12.10;99.90;;;;;;6181806;23;20075;-87
2022/09/29 09:57:51;;;;;;;5.05;2.17;;;12.10;99.90;;;;;;6155913;23;20021;-87
2022/09/29 10:00:27;;;;;;;4.43;2.20;;;12.20;99.90;;;;;;6156648;23;20040;-87
2022/09/29 10:02:55;;;;;;;4.40;2.08;;;12.40;99.90;;;;;;6182412;23;20010;-88
2022/09/29 10:05:56;;;;;;;4.50;2.17;;;12.50;99.90;;;;;;6181772;23;20063;-87
2022/09/29 10:08:29;;;;;;;4.65;2.65;;;13.10;99.90;;;;;;6120432;23;20041;-88
2022/09/29 10:10:56;;;;;;;4.53;2.60;;;12.90;99.90;;;;;;6096948;23;20022;-90
2022/09/29 10:13:25;;;;;;;3.75;1.63;;;13.00;99.90;;;;;;6123195;23;20057;-90
2022/09/29 10:16:19;;;;;;;5.13;3.10;;;13.20;99.90;;;;;;6122887;23;20356;-90
2022/09/29 10:18:47;;;;;;;7.22;5.10;;;13.30;99.90;;;;;;6123713;23;20302;-89
2022/09/29 10:21:35;;;;;;;5.10;2.10;;;13.50;99.90;;;;;;6149589;23;20017;-88
2022/09/29 10:24:03;;;;;;;4.75;1.50;;;13.70;99.90;;;;;;6190788;23;20047;-88
2022/09/29 10:26:42;;;;;;;2.88;1.05;;;13.80;99.90;;;;;;6211356;23;20091;-89
2022/09/29 10:29:22;;;;;;;3.13;1.27;;;14.40;99.90;;;;;;6190213;23;20016;-87
2022/09/29 10:32:09;;;;;;;4.07;1.65;;;14.00;99.90;;;;;;6214071;23;20537;-87
2022/09/29 10:34:44;;;;;;;3.92;2.13;;;14.10;99.90;;;;;;6162114;23;20472;-86
2022/09/29 10:37:22;;;;;;;2.45;1.20;;;14.20;99.90;;;;;;6188183;23;20102;-90
2022/09/29 10:39:49;;;;;;;2.42;1.10;;;14.30;99.90;;;;;;6191352;23;20055;-94
2022/09/29 10:42:34;;;;;;;2.47;1.00;;;14.30;99.90;;;;;;6229201;22;20034;-93
2022/09/29 10:45:20;;;;;;;2.88;1.20;;;14.40;99.90;;;;;;6277999;22;20027;-93
2022/09/29 10:47:56;;;;;;;6.90;3.83;;;14.40;99.90;;;;;;6278312;22;20020;-94
2022/09/29 10:50:46;;;;;;;7.22;4.90;;;14.60;99.90;;;;;;6252481;22;20019;-89
2022/09/29 10:53:22;;;;;;;4.22;2.05;;;14.70;99.90;;;;;;6280330;22;20016;-90
2022/09/29 10:55:51;;;;;;;3.90;1.17;;;15.40;99.90;;;;;;6274216;22;20008;-88
2022/09/29 10:58:29;;;;;;;4.15;1.05;;;14.90;99.90;;;;;;6272806;22;20019;-86
2022/09/29 11:01:16;;;;;;;2.30;0.88;;;15.00;99.90;;;;;;6273038;22;20015;-87
2022/09/29 11:04:04;;;;;;;3.15;1.20;;;15.20;99.90;;;;;;6274038;22;20012;-88
2022/09/29 11:06:39;;;;;;;2.58;1.35;;;15.30;99.90;;;;;;6271781;22;20019;-88
2022/09/29 11:09:16;;;;;;;2.58;1.20;;;15.40;99.90;;;;;;6274701;22;20028;-88
2022/09/29 11:11:48;;;;;;;2.13;1.10;;;15.50;99.90;;;;;;6273541;22;20139;-86
2022/09/29 11:14:38;;;;;;;1.90;1.10;;;15.60;99.90;;;;;;6274378;22;20016;-88
2022/09/29 11:17:36;;;;;;;1.98;0.90;;;15.80;99.90;;;;;;6273509;22;20015;-88
2022/09/29 11:20:05;;;;;;;2.83;1.10;;;15.90;99.90;;;;;;6274065;22;20074;-88
2022/09/29 11:23:01;;;;;;;1.92;0.85;;;16.00;99.90;;;;;;6275323;22;20029;-88
2022/09/29 11:25:55;;;;;;;4.80;1.70;;;16.20;99.90;;;;;;6274220;22;20437;-88
2022/09/29 11:28:27;;;;;;;5.03;1.65;;;16.30;99.90;;;;;;6273919;22;20102;-88
2022/09/29 11:31:20;;;;;;;2.20;0.90;;;16.40;99.90;;;;;;6272676;22;20086;-86
2022/09/29 11:34:08;;;;;;;2.38;0.93;;;16.40;99.90;;;;;;6271889;22;20094;-85
2022/09/29 11:37:01;;;;;;;2.17;0.75;;;16.20;99.90;;;;;;6272124;22;20033;-85
2022/09/29 11:39:48;;;;;;;1.45;0.60;;;16.00;99.90;;;;;;6271466;22;20029;-86
2022/09/29 11:42:31;;;;;;;3.08;0.80;;;15.80;99.90;;;;;;6273357;22;20034;-86
2022/09/29 11:45:02;;;;;;;2.13;0.60;;;15.80;99.90;;;;;;6272932;22;20019;-86
2022/09/29 11:48:06;;;;;;;2.13;0.60;;;16.00;99.90;;;;;;6273151;22;20011;-84
2022/09/29 11:50:45;;;;;;;1.48;0.50;;;16.20;99.90;;;;;;6273216;22;20023;-85
2022/09/29 11:53:29;;;;;;;2.03;0.40;;;16.20;99.90;;;;;;6270899;22;20061;-85
2022/09/29 11:56:13;;;;;;;2.15;0.70;;;16.10;99.90;;;;;;6273446;22;20015;-85
2022/09/29 11:58:57;;;;;;;2.53;0.80;;;16.20;99.90;;;;;;6272648;22;20440;-85
2022/09/29 12:01:47;;;;;;;2.60;0.65;;;16.30;99.90;;;;;;6271925;22;20016;-85
2022/09/29 12:04:28;;;;;;;2.38;0.80;;;16.50;99.90;;;;;;6273217;22;20542;-85
2022/09/29 12:07:12;;;;;;;1.25;0.40;;;16.60;99.90;;;;;;6271122;22;20024;-85
2022/09/29 12:09:47;;;;;;;1.67;0.40;;;16.80;99.90;;;;;;6271772;22;20011;-85
2022/09/29 12:12:41;;;;;;;0.63;0.38;;;16.90;99.90;;;;;;6245978;22;20016;-86
2022/09/29 12:15:07;;;;;;;2.45;0.60;;;17.10;99.90;;;;;;6273663;22;20110;-84
2022/09/29 12:17:37;;;;;;;1.25;0.40;;;17.20;99.90;;;;;;6270715;22;20417;-84
2022/09/29 12:20:24;;;;;;;1.77;0.43;;;17.20;99.90;;;;;;6271760;22;20445;-84
2022/09/29 12:22:53;;;;;;;2.28;0.40;;;17.20;99.90;;;;;;6269744;22;20445;-85
2022/09/29 12:25:28;;;;;;;2.22;0.43;;;17.30;99.90;;;;;;6270945;22;20118;-83
2022/09/29 12:28:00;;;;;;;2.35;0.60;;;17.40;99.90;;;;;;6270348;22;20429;-83
2022/09/29 12:30:28;;;;;;;1.60;0.40;;;17.60;99.90;;;;;;6271557;22;20004;-85
2022/09/29 12:32:57;;;;;;;1.25;0.40;;;17.80;99.90;;;;;;6271137;22;20038;-85
2022/09/29 12:35:39;;;;;;;0.85;0.55;;;17.90;99.90;;;;;;6269513;22;20012;-82
2022/09/29 12:38:30;;;;;;;1.20;0.60;;;18.10;99.90;;;;;;6272147;22;20026;-85
2022/09/29 12:41:16;;;;;;;1.55;0.50;;;18.10;99.90;;;;;;6228149;22;20015;-82
2022/09/29 12:43:57;;;;;;;1.17;0.40;;;17.80;99.90;;;;;;6269271;22;20019;-85
2022/09/29 12:46:40;;;;;;;0.82;0.40;;;17.70;99.90;;;;;;6272075;22;20022;-83
2022/09/29 12:49:24;;;;;;;4.93;0.85;;;17.60;99.90;;;;;;6271732;22;20057;-85
2022/09/29 12:51:51;;;;;;;8.73;2.30;;;17.30;99.90;;;;;;6271041;22;20003;-85
2022/09/29 12:54:31;;;;;;;3.00;0.80;;;17.10;99.90;;;;;;6270323;22;20090;-83
2022/09/29 12:57:04;;;;;;;2.25;0.60;;;17.00;99.90;;;;;;6270303;22;20024;-84
2022/09/29 12:59:54;;;;;;;4.07;1.75;;;16.80;99.90;;;;;;6269428;22;20015;-82
2022/09/29 13:02:39;;;;;;;2.05;0.70;;;16.70;99.90;;;;;;6271959;22;20020;-82
2022/09/29 13:05:32;;;;;;;2.08;0.70;;;16.60;99.90;;;;;;6271031;22;20464;-82
2022/09/29 13:08:03;;;;;;;3.10;1.10;;;16.40;99.90;;;;;;6244714;22;20012;-81
2022/09/29 13:10:44;;;;;;;2.10;0.73;;;16.40;99.90;;;;;;6271509;22;20062;-84
2022/09/29 13:13:21;;;;;;;0.82;0.30;;;16.40;99.90;;;;;;6269708;22;20078;-81
2022/09/29 13:16:12;;;;;;;5.20;2.30;;;16.40;99.90;;;;;;6269959;22;20016;-81
2022/09/29 13:19:07;;;;;;;1.55;0.40;;;16.30;99.90;;;;;;6271949;22;20310;-84